sensor_id;sensor_type;location;lat;lon;timestamp;pressure;altitude;pressure_sealevel;temperature;humidity
53719;BME280;39616;48.872;9.390;2023-03-31T00:00:59;97735.56;;;10.55;77.13
53719;BME280;39616;48.872;9.390;2023-03-31T00:03:29;97727.59;;;10.58;76.96
53719;BME280;39616;48.872;9.390;2023-03-31T00:06:03;97724.13;;;10.67;76.60
53719;BME280;39616;48.872;9.390;2023-03-31T00:08:34;97720.78;;;10.61;77.09
53719;BME280;39616;48.872;9.390;2023-03-31T00:11:05;97718.97;;;10.56;77.30
53719;BME280;39616;48.872;9.390;2023-03-31T00:13:37;97712.22;;;10.76;75.36
53719;BME280;39616;48.872;9.390;2023-03-31T00:16:08;97702.63;;;10.70;75.99
53719;BME280;39616;48.872;9.390;2023-03-31T00:18:39;97704.84;;;10.68;76.07
53719;BME280;39616;48.872;9.390;2023-03-31T00:21:22;97696.06;;;10.71;76.19
53719;BME280;39616;48.872;9.390;2023-03-31T00:24:00;97682.22;;;10.73;75.59
53719;BME280;39616;48.872;9.390;2023-03-31T00:26:32;97684.31;;;10.76;75.69
53719;BME280;39616;48.872;9.390;2023-03-31T00:29:05;97683.00;;;10.73;75.74
53719;BME280;39616;48.872;9.390;2023-03-31T00:31:36;97680.31;;;10.73;75.79
53719;BME280;39616;48.872;9.390;2023-03-31T00:34:07;97673.72;;;10.66;76.21
53719;BME280;39616;48.872;9.390;2023-03-31T00:36:38;97673.56;;;10.62;76.43
53719;BME280;39616;48.872;9.390;2023-03-31T00:39:17;97657.47;;;10.66;75.84
53719;BME280;39616;48.872;9.390;2023-03-31T00:41:51;97664.19;;;10.77;75.41
53719;BME280;39616;48.872;9.390;2023-03-31T00:44:22;97660.53;;;10.73;75.85
53719;BME280;39616;48.872;9.390;2023-03-31T00:47:26;97655.41;;;10.71;75.89
53719;BME280;39616;48.872;9.390;2023-03-31T00:49:58;97650.31;;;10.70;75.85
53719;BME280;39616;48.872;9.390;2023-03-31T00:52:32;97650.16;;;10.75;75.76
53719;BME280;39616;48.872;9.390;2023-03-31T00:55:13;97645.56;;;10.75;75.61
53719;BME280;39616;48.872;9.390;2023-03-31T00:57:46;97635.50;;;10.76;75.63
53719;BME280;39616;48.872;9.390;2023-03-31T01:00:17;97627.19;;;10.72;75.96
53719;BME280;39616;48.872;9.390;2023-03-31T01:02:52;97628.16;;;10.76;75.57
53719;BME280;39616;48.872;9.390;2023-03-31T01:05:29;97624.16;;;10.74;75.61
53719;BME280;39616;48.872;9.390;2023-03-31T01:08:03;97625.44;;;10.76;75.45
53719;BME280;39616;48.872;9.390;2023-03-31T01:10:39;97631.66;;;10.77;75.35
53719;BME280;39616;48.872;9.390;2023-03-31T01:13:12;97632.13;;;10.70;76.30
53719;BME280;39616;48.872;9.390;2023-03-31T01:15:44;97634.34;;;10.68;75.95
53719;BME280;39616;48.872;9.390;2023-03-31T01:18:15;97624.03;;;10.79;75.17
53719;BME280;39616;48.872;9.390;2023-03-31T01:21:17;97615.28;;;10.91;74.98
53719;BME280;39616;48.872;9.390;2023-03-31T01:29:45;97609.06;;;10.90;75.18
53719;BME280;39616;48.872;9.390;2023-03-31T01:32:38;97607.44;;;10.89;75.18
53719;BME280;39616;48.872;9.390;2023-03-31T01:38:33;97586.88;;;10.88;74.83
53719;BME280;39616;48.872;9.390;2023-03-31T01:41:35;97565.63;;;10.81;75.74
53719;BME280;39616;48.872;9.390;2023-03-31T01:46:53;97559.88;;;10.74;76.40
53719;BME280;39616;48.872;9.390;2023-03-31T01:49:33;97566.75;;;10.72;76.11
53719;BME280;39616;48.872;9.390;2023-03-31T01:52:24;97567.53;;;10.72;75.57
53719;BME280;39616;48.872;9.390;2023-03-31T01:55:08;97564.50;;;10.74;75.44
53719;BME280;39616;48.872;9.390;2023-03-31T01:57:53;97564.66;;;10.86;73.84
53719;BME280;39616;48.872;9.390;2023-03-31T02:00:30;97578.56;;;10.93;73.92
53719;BME280;39616;48.872;9.390;2023-03-31T02:03:16;97579.38;;;11.02;73.63
53719;BME280;39616;48.872;9.390;2023-03-31T02:05:53;97579.84;;;10.96;74.42
53719;BME280;39616;48.872;9.390;2023-03-31T02:08:38;97587.19;;;10.95;74.72
53719;BME280;39616;48.872;9.390;2023-03-31T02:11:10;97587.19;;;11.04;74.42
53719;BME280;39616;48.872;9.390;2023-03-31T02:13:44;97586.56;;;11.07;74.50
53719;BME280;39616;48.872;9.390;2023-03-31T02:16:19;97586.56;;;11.07;74.76
53719;BME280;39616;48.872;9.390;2023-03-31T02:18:56;97585.16;;;11.09;74.52
53719;BME280;39616;48.872;9.390;2023-03-31T02:21:36;97583.69;;;11.03;74.86
53719;BME280;39616;48.872;9.390;2023-03-31T02:24:10;97578.44;;;10.98;74.43
53719;BME280;39616;48.872;9.390;2023-03-31T02:26:49;97566.31;;;11.13;72.84
53719;BME280;39616;48.872;9.390;2023-03-31T02:29:21;97562.50;;;11.05;72.42
53719;BME280;39616;48.872;9.390;2023-03-31T02:32:14;97556.72;;;11.07;71.96
53719;BME280;39616;48.872;9.390;2023-03-31T02:34:46;97552.88;;;11.08;72.46
53719;BME280;39616;48.872;9.390;2023-03-31T02:37:17;97549.38;;;11.07;72.84
53719;BME280;39616;48.872;9.390;2023-03-31T02:39:49;97551.00;;;11.08;72.91
53719;BME280;39616;48.872;9.390;2023-03-31T02:42:23;97549.56;;;11.02;73.77
53719;BME280;39616;48.872;9.390;2023-03-31T02:45:01;97544.91;;;10.94;74.90
53719;BME280;39616;48.872;9.390;2023-03-31T02:47:31;97532.78;;;10.92;74.68
53719;BME280;39616;48.872;9.390;2023-03-31T02:50:04;97525.78;;;10.91;75.70
53719;BME280;39616;48.872;9.390;2023-03-31T02:52:47;97517.31;;;10.83;77.38
53719;BME280;39616;48.872;9.390;2023-03-31T02:58:48;97475.81;;;10.66;78.89
53719;BME280;39616;48.872;9.390;2023-03-31T03:01:36;97463.84;;;10.58;79.18
53719;BME280;39616;48.872;9.390;2023-03-31T03:04:40;97464.78;;;10.53;79.51
53719;BME280;39616;48.872;9.390;2023-03-31T03:07:27;97468.31;;;10.54;79.48
53719;BME280;39616;48.872;9.390;2023-03-31T03:10:10;97450.91;;;10.55;79.34
53719;BME280;39616;48.872;9.390;2023-03-31T03:13:02;97439.75;;;10.48;80.64
53719;BME280;39616;48.872;9.390;2023-03-31T03:15:47;97430.81;;;10.56;78.72
53719;BME280;39616;48.872;9.390;2023-03-31T03:18:18;97414.56;;;10.47;79.76
53719;BME280;39616;48.872;9.390;2023-03-31T03:20:49;97399.72;;;10.45;80.06
53719;BME280;39616;48.872;9.390;2023-03-31T03:23:20;97390.00;;;10.44;80.00
53719;BME280;39616;48.872;9.390;2023-03-31T03:25:51;97393.50;;;10.35;80.70
53719;BME280;39616;48.872;9.390;2023-03-31T03:28:22;97382.50;;;10.40;79.25
53719;BME280;39616;48.872;9.390;2023-03-31T03:30:52;97374.66;;;10.30;81.04
53719;BME280;39616;48.872;9.390;2023-03-31T03:33:22;97361.28;;;10.25;81.27
53719;BME280;39616;48.872;9.390;2023-03-31T03:35:54;97359.97;;;10.23;81.10
53719;BME280;39616;48.872;9.390;2023-03-31T03:38:24;97349.47;;;10.21;80.42
53719;BME280;39616;48.872;9.390;2023-03-31T03:40:54;97348.81;;;10.15;81.77
53719;BME280;39616;48.872;9.390;2023-03-31T03:43:25;97343.38;;;10.07;82.97
53719;BME280;39616;48.872;9.390;2023-03-31T03:45:55;97340.00;;;10.01;82.46
53719;BME280;39616;48.872;9.390;2023-03-31T03:48:25;97336.84;;;9.99;82.94
53719;BME280;39616;48.872;9.390;2023-03-31T03:51:01;97327.13;;;9.98;83.37
53719;BME280;39616;48.872;9.390;2023-03-31T03:53:31;97321.06;;;10.01;82.22
53719;BME280;39616;48.872;9.390;2023-03-31T03:56:01;97312.75;;;9.98;83.14
53719;BME280;39616;48.872;9.390;2023-03-31T03:58:32;97316.44;;;9.93;84.71
53719;BME280;39616;48.872;9.390;2023-03-31T04:01:02;97313.25;;;9.91;84.86
53719;BME280;39616;48.872;9.390;2023-03-31T04:03:33;97305.13;;;9.91;84.33
53719;BME280;39616;48.872;9.390;2023-03-31T04:06:03;97300.50;;;9.91;84.00
53719;BME280;39616;48.872;9.390;2023-03-31T04:08:34;97288.72;;;9.87;84.24
53719;BME280;39616;48.872;9.390;2023-03-31T04:11:12;97277.72;;;10.01;83.18
53719;BME280;39616;48.872;9.390;2023-03-31T04:13:43;97274.38;;;10.04;83.36
53719;BME280;39616;48.872;9.390;2023-03-31T04:16:14;97272.47;;;10.05;82.84
53719;BME280;39616;48.872;9.390;2023-03-31T04:18:45;97257.03;;;9.97;83.75
53719;BME280;39616;48.872;9.390;2023-03-31T04:21:17;97248.91;;;9.88;83.82
53719;BME280;39616;48.872;9.390;2023-03-31T04:23:53;97240.44;;;9.89;83.19
53719;BME280;39616;48.872;9.390;2023-03-31T04:26:36;97240.63;;;9.76;83.91
53719;BME280;39616;48.872;9.390;2023-03-31T04:29:14;97235.34;;;9.62;85.39
53719;BME280;39616;48.872;9.390;2023-03-31T04:31:49;97222.44;;;9.50;86.40
53719;BME280;39616;48.872;9.390;2023-03-31T04:34:21;97222.88;;;9.43;87.40
53719;BME280;39616;48.872;9.390;2023-03-31T04:36:55;97214.31;;;9.50;87.14
53719;BME280;39616;48.872;9.390;2023-03-31T04:39:25;97208.75;;;9.55;87.27
53719;BME280;39616;48.872;9.390;2023-03-31T04:41:57;97196.94;;;9.60;87.10
53719;BME280;39616;48.872;9.390;2023-03-31T04:44:28;97207.16;;;9.72;86.58
53719;BME280;39616;48.872;9.390;2023-03-31T04:46:58;97208.59;;;9.69;86.94
53719;BME280;39616;48.872;9.390;2023-03-31T04:49:31;97201.91;;;9.92;84.14
53719;BME280;39616;48.872;9.390;2023-03-31T04:52:02;97197.28;;;9.93;83.76
53719;BME280;39616;48.872;9.390;2023-03-31T04:54:33;97186.91;;;10.04;83.31
53719;BME280;39616;48.872;9.390;2023-03-31T04:57:03;97176.41;;;10.11;82.55
53719;BME280;39616;48.872;9.390;2023-03-31T04:59:33;97164.28;;;10.17;81.99
53719;BME280;39616;48.872;9.390;2023-03-31T05:02:03;97164.59;;;10.15;82.55
53719;BME280;39616;48.872;9.390;2023-03-31T05:04:34;97153.16;;;10.27;81.12
53719;BME280;39616;48.872;9.390;2023-03-31T05:07:05;97147.25;;;10.16;83.37
53719;BME280;39616;48.872;9.390;2023-03-31T05:09:35;97157.09;;;10.21;82.82
53719;BME280;39616;48.872;9.390;2023-03-31T05:12:05;97164.94;;;10.14;83.38
53719;BME280;39616;48.872;9.390;2023-03-31T05:14:36;97158.22;;;10.20;82.61
53719;BME280;39616;48.872;9.390;2023-03-31T05:17:06;97164.09;;;10.22;82.55
53719;BME280;39616;48.872;9.390;2023-03-31T05:19:36;97166.81;;;10.22;82.15
53719;BME280;39616;48.872;9.390;2023-03-31T05:22:06;97184.19;;;10.21;82.03
53719;BME280;39616;48.872;9.390;2023-03-31T05:24:37;97187.06;;;10.25;82.97
53719;BME280;39616;48.872;9.390;2023-03-31T05:27:07;97194.88;;;10.26;85.40
53719;BME280;39616;48.872;9.390;2023-03-31T05:29:37;97201.72;;;10.24;86.25
53719;BME280;39616;48.872;9.390;2023-03-31T05:32:08;97207.47;;;10.05;92.64
53719;BME280;39616;48.872;9.390;2023-03-31T05:34:38;97224.84;;;9.86;97.97
53719;BME280;39616;48.872;9.390;2023-03-31T05:37:08;97231.38;;;9.77;100.00
53719;BME280;39616;48.872;9.390;2023-03-31T05:39:39;97243.91;;;9.64;100.00
53719;BME280;39616;48.872;9.390;2023-03-31T05:42:09;97251.88;;;9.52;100.00
53719;BME280;39616;48.872;9.390;2023-03-31T05:44:40;97246.56;;;9.38;100.00
53719;BME280;39616;48.872;9.390;2023-03-31T05:47:11;97232.06;;;9.25;100.00
53719;BME280;39616;48.872;9.390;2023-03-31T05:49:41;97236.53;;;9.21;100.00
53719;BME280;39616;48.872;9.390;2023-03-31T05:52:12;97216.75;;;9.12;100.00
53719;BME280;39616;48.872;9.390;2023-03-31T05:54:42;97228.03;;;9.05;100.00
53719;BME280;39616;48.872;9.390;2023-03-31T05:57:13;97220.50;;;8.93;100.00
53719;BME280;39616;48.872;9.390;2023-03-31T05:59:43;97216.38;;;8.87;100.00
53719;BME280;39616;48.872;9.390;2023-03-31T06:02:13;97210.59;;;8.80;100.00
53719;BME280;39616;48.872;9.390;2023-03-31T06:04:44;97192.91;;;8.74;100.00
53719;BME280;39616;48.872;9.390;2023-03-31T06:07:14;97184.81;;;8.74;100.00
53719;BME280;39616;48.872;9.390;2023-03-31T06:09:46;97176.72;;;8.74;100.00
53719;BME280;39616;48.872;9.390;2023-03-31T06:12:17;97157.25;;;8.63;100.00
53719;BME280;39616;48.872;9.390;2023-03-31T06:14:47;97164.59;;;8.63;100.00
53719;BME280;39616;48.872;9.390;2023-03-31T06:17:17;97147.25;;;8.64;100.00
53719;BME280;39616;48.872;9.390;2023-03-31T06:19:47;97136.44;;;8.64;100.00
53719;BME280;39616;48.872;9.390;2023-03-31T06:22:18;97132.63;;;8.65;100.00
53719;BME280;39616;48.872;9.390;2023-03-31T06:24:48;97133.44;;;8.65;100.00
53719;BME280;39616;48.872;9.390;2023-03-31T06:27:18;97121.63;;;8.61;100.00
53719;BME280;39616;48.872;9.390;2023-03-31T06:29:49;97131.81;;;8.64;100.00
53719;BME280;39616;48.872;9.390;2023-03-31T06:32:19;97122.94;;;8.64;100.00
53719;BME280;39616;48.872;9.390;2023-03-31T06:34:49;97107.03;;;8.62;100.00
53719;BME280;39616;48.872;9.390;2023-03-31T06:37:19;97108.47;;;8.68;100.00
53719;BME280;39616;48.872;9.390;2023-03-31T06:39:50;97106.59;;;8.69;100.00
53719;BME280;39616;48.872;9.390;2023-03-31T06:42:20;97106.59;;;8.69;100.00
53719;BME280;39616;48.872;9.390;2023-03-31T06:44:50;97105.75;;;8.68;100.00
53719;BME280;39616;48.872;9.390;2023-03-31T06:47:21;97111.81;;;8.65;100.00
53719;BME280;39616;48.872;9.390;2023-03-31T06:49:51;97109.41;;;8.64;100.00
53719;BME280;39616;48.872;9.390;2023-03-31T06:52:21;97116.72;;;8.63;100.00
53719;BME280;39616;48.872;9.390;2023-03-31T06:54:52;97116.91;;;8.67;100.00
53719;BME280;39616;48.872;9.390;2023-03-31T06:57:22;97117.84;;;8.62;100.00
53719;BME280;39616;48.872;9.390;2023-03-31T06:59:52;97129.44;;;8.63;100.00
53719;BME280;39616;48.872;9.390;2023-03-31T07:02:23;97130.56;;;8.62;100.00
53719;BME280;39616;48.872;9.390;2023-03-31T07:04:53;97146.13;;;8.65;100.00
53719;BME280;39616;48.872;9.390;2023-03-31T07:07:23;97150.56;;;8.61;100.00
53719;BME280;39616;48.872;9.390;2023-03-31T07:09:53;97158.38;;;8.62;100.00
53719;BME280;39616;48.872;9.390;2023-03-31T07:12:25;97172.50;;;8.59;100.00
53719;BME280;39616;48.872;9.390;2023-03-31T07:14:55;97176.69;;;8.65;100.00
53719;BME280;39616;48.872;9.390;2023-03-31T07:17:25;97181.59;;;8.63;100.00
53719;BME280;39616;48.872;9.390;2023-03-31T07:19:56;97194.78;;;8.65;100.00
53719;BME280;39616;48.872;9.390;2023-03-31T07:22:26;97170.94;;;8.67;100.00
53719;BME280;39616;48.872;9.390;2023-03-31T07:24:57;97159.81;;;8.68;100.00
53719;BME280;39616;48.872;9.390;2023-03-31T07:27:27;97080.53;;;8.73;100.00
53719;BME280;39616;48.872;9.390;2023-03-31T07:29:57;97064.16;;;8.78;100.00
53719;BME280;39616;48.872;9.390;2023-03-31T07:32:28;97044.94;;;8.88;100.00
53719;BME280;39616;48.872;9.390;2023-03-31T07:34:58;97042.56;;;8.95;100.00
53719;BME280;39616;48.872;9.390;2023-03-31T07:37:36;97070.56;;;9.00;100.00
53719;BME280;39616;48.872;9.390;2023-03-31T07:40:10;97061.81;;;9.03;100.00
53719;BME280;39616;48.872;9.390;2023-03-31T07:42:42;97082.16;;;9.09;100.00
53719;BME280;39616;48.872;9.390;2023-03-31T07:45:15;97088.22;;;9.14;100.00
53719;BME280;39616;48.872;9.390;2023-03-31T07:47:45;97097.78;;;9.29;100.00
53719;BME280;39616;48.872;9.390;2023-03-31T07:50:17;97098.41;;;9.61;100.00
53719;BME280;39616;48.872;9.390;2023-03-31T07:52:47;97093.16;;;10.37;100.00
53719;BME280;39616;48.872;9.390;2023-03-31T07:55:18;97089.19;;;10.73;100.00
53719;BME280;39616;48.872;9.390;2023-03-31T07:57:49;97084.31;;;10.87;100.00
53719;BME280;39616;48.872;9.390;2023-03-31T08:00:21;97077.97;;;11.04;100.00
53719;BME280;39616;48.872;9.390;2023-03-31T08:02:51;97072.91;;;11.03;95.58
53719;BME280;39616;48.872;9.390;2023-03-31T08:05:22;97073.94;;;10.89;98.61
53719;BME280;39616;48.872;9.390;2023-03-31T08:07:52;97076.56;;;10.77;96.81
53719;BME280;39616;48.872;9.390;2023-03-31T08:10:25;97086.97;;;10.75;98.32
53719;BME280;39616;48.872;9.390;2023-03-31T08:12:55;97068.50;;;10.60;91.34
53719;BME280;39616;48.872;9.390;2023-03-31T08:15:26;97062.56;;;10.75;91.55
53719;BME280;39616;48.872;9.390;2023-03-31T08:17:56;97071.38;;;11.14;86.43
53719;BME280;39616;48.872;9.390;2023-03-31T08:20:26;97060.84;;;11.54;90.41
53719;BME280;39616;48.872;9.390;2023-03-31T08:22:56;97063.19;;;12.10;83.50
53719;BME280;39616;48.872;9.390;2023-03-31T08:25:27;97050.22;;;12.65;80.66
53719;BME280;39616;48.872;9.390;2023-03-31T08:27:57;97055.06;;;12.96;78.82
53719;BME280;39616;48.872;9.390;2023-03-31T08:30:27;97050.50;;;13.24;77.08
53719;BME280;39616;48.872;9.390;2023-03-31T08:32:58;97046.28;;;13.67;77.22
53719;BME280;39616;48.872;9.390;2023-03-31T08:35:28;97042.34;;;13.81;75.88
53719;BME280;39616;48.872;9.390;2023-03-31T08:37:58;97043.28;;;14.16;73.19
53719;BME280;39616;48.872;9.390;2023-03-31T08:40:30;97046.72;;;14.45;71.25
53719;BME280;39616;48.872;9.390;2023-03-31T08:43:05;97048.03;;;14.04;71.75
53719;BME280;39616;48.872;9.390;2023-03-31T08:45:40;97036.53;;;14.10;71.77
53719;BME280;39616;48.872;9.390;2023-03-31T08:48:29;97033.16;;;14.01;70.81
53719;BME280;39616;48.872;9.390;2023-03-31T08:51:13;97032.31;;;14.29;70.68
53719;BME280;39616;48.872;9.390;2023-03-31T08:54:00;97021.47;;;14.64;70.11
53719;BME280;39616;48.872;9.390;2023-03-31T08:56:34;97024.41;;;14.90;69.40
53719;BME280;39616;48.872;9.390;2023-03-31T09:02:01;97040.72;;;15.61;66.08
53719;BME280;39616;48.872;9.390;2023-03-31T09:08:03;97021.28;;;16.28;62.39
53719;BME280;39616;48.872;9.390;2023-03-31T09:16:10;97010.59;;;16.69;62.75
53719;BME280;39616;48.872;9.390;2023-03-31T09:18:42;96996.41;;;16.36;64.29
53719;BME280;39616;48.872;9.390;2023-03-31T09:21:34;97003.16;;;16.19;65.75
53719;BME280;39616;48.872;9.390;2023-03-31T09:26:50;96988.47;;;15.62;63.71
53719;BME280;39616;48.872;9.390;2023-03-31T09:29:28;96989.41;;;15.51;64.36
53719;BME280;39616;48.872;9.390;2023-03-31T09:32:20;97003.28;;;15.22;65.11
53719;BME280;39616;48.872;9.390;2023-03-31T09:35:26;96985.31;;;15.80;62.67
53719;BME280;39616;48.872;9.390;2023-03-31T09:37:54;96989.44;;;16.16;60.65
53719;BME280;39616;48.872;9.390;2023-03-31T09:40:27;97005.91;;;16.19;60.03
53719;BME280;39616;48.872;9.390;2023-03-31T09:43:05;97000.50;;;16.00;58.67
53719;BME280;39616;48.872;9.390;2023-03-31T09:45:36;96994.59;;;14.82;59.51
53719;BME280;39616;48.872;9.390;2023-03-31T09:48:12;96995.28;;;15.72;59.04
53719;BME280;39616;48.872;9.390;2023-03-31T09:50:48;96987.59;;;15.19;60.85
53719;BME280;39616;48.872;9.390;2023-03-31T09:56:01;96991.94;;;14.66;60.08
53719;BME280;39616;48.872;9.390;2023-03-31T09:58:39;96991.63;;;14.71;60.66
53719;BME280;39616;48.872;9.390;2023-03-31T10:01:11;96990.88;;;14.55;57.40
53719;BME280;39616;48.872;9.390;2023-03-31T10:03:50;96995.22;;;15.10;57.32
53719;BME280;39616;48.872;9.390;2023-03-31T10:06:22;96986.03;;;15.77;54.83
53719;BME280;39616;48.872;9.390;2023-03-31T10:08:56;96974.44;;;16.06;53.63
53719;BME280;39616;48.872;9.390;2023-03-31T10:11:27;96961.53;;;16.56;54.70
53719;BME280;39616;48.872;9.390;2023-03-31T10:14:01;96957.47;;;17.00;54.17
53719;BME280;39616;48.872;9.390;2023-03-31T10:16:42;96967.34;;;16.78;52.25
53719;BME280;39616;48.872;9.390;2023-03-31T10:19:25;96956.19;;;16.14;53.07
53719;BME280;39616;48.872;9.390;2023-03-31T10:22:05;96946.63;;;16.50;51.97
53719;BME280;39616;48.872;9.390;2023-03-31T10:24:38;96957.84;;;16.45;53.07
53719;BME280;39616;48.872;9.390;2023-03-31T10:27:20;96947.81;;;16.53;51.99
53719;BME280;39616;48.872;9.390;2023-03-31T10:30:02;96940.13;;;16.88;50.76
53719;BME280;39616;48.872;9.390;2023-03-31T10:32:38;96960.84;;;17.16;50.15
53719;BME280;39616;48.872;9.390;2023-03-31T10:35:29;96942.66;;;17.34;50.22
53719;BME280;39616;48.872;9.390;2023-03-31T10:38:14;96941.31;;;17.55;50.87
53719;BME280;39616;48.872;9.390;2023-03-31T10:40:56;96936.41;;;16.74;50.68
53719;BME280;39616;48.872;9.390;2023-03-31T10:43:49;96934.97;;;17.47;50.89
53719;BME280;39616;48.872;9.390;2023-03-31T10:46:20;96924.81;;;17.14;50.45
53719;BME280;39616;48.872;9.390;2023-03-31T10:49:25;96909.19;;;17.18;50.08
53719;BME280;39616;48.872;9.390;2023-03-31T10:51:58;96899.19;;;16.99;49.47
53719;BME280;39616;48.872;9.390;2023-03-31T10:54:30;96901.97;;;17.36;50.82
53719;BME280;39616;48.872;9.390;2023-03-31T10:57:01;96898.97;;;16.81;49.81
53719;BME280;39616;48.872;9.390;2023-03-31T11:00:05;96911.13;;;15.81;51.21
53719;BME280;39616;48.872;9.390;2023-03-31T11:11:24;96917.06;;;15.21;52.81
53719;BME280;39616;48.872;9.390;2023-03-31T11:20:14;96890.41;;;14.95;53.22
53719;BME280;39616;48.872;9.390;2023-03-31T11:23:13;96873.59;;;14.93;52.69
53719;BME280;39616;48.872;9.390;2023-03-31T11:26:41;96890.06;;;14.78;54.01
53719;BME280;39616;48.872;9.390;2023-03-31T11:32:03;96954.38;;;13.08;62.69
53719;BME280;39616;48.872;9.390;2023-03-31T11:34:49;97021.78;;;11.80;74.74
53719;BME280;39616;48.872;9.390;2023-03-31T11:46:03;97063.84;;;8.88;100.00
53719;BME280;39616;48.872;9.390;2023-03-31T11:48:41;97065.28;;;8.86;100.00
53719;BME280;39616;48.872;9.390;2023-03-31T11:51:21;97062.75;;;9.07;100.00
53719;BME280;39616;48.872;9.390;2023-03-31T11:53:56;97065.31;;;9.12;100.00
53719;BME280;39616;48.872;9.390;2023-03-31T11:56:34;97068.00;;;9.38;100.00
53719;BME280;39616;48.872;9.390;2023-03-31T11:59:06;97065.00;;;9.31;94.53
53719;BME280;39616;48.872;9.390;2023-03-31T12:04:33;97047.59;;;9.84;93.28
53719;BME280;39616;48.872;9.390;2023-03-31T12:07:18;97050.41;;;9.96;90.87
53719;BME280;39616;48.872;9.390;2023-03-31T12:10:18;97045.44;;;10.07;89.99
53719;BME280;39616;48.872;9.390;2023-03-31T12:12:58;97043.63;;;10.20;86.84
53719;BME280;39616;48.872;9.390;2023-03-31T12:15:36;97034.06;;;10.31;86.04
53719;BME280;39616;48.872;9.390;2023-03-31T12:18:15;97033.13;;;10.56;83.18
53719;BME280;39616;48.872;9.390;2023-03-31T12:20:59;97015.66;;;10.75;80.62
53719;BME280;39616;48.872;9.390;2023-03-31T12:23:40;97024.75;;;11.21;79.50
53719;BME280;39616;48.872;9.390;2023-03-31T12:29:06;97003.53;;;12.50;73.12
53719;BME280;39616;48.872;9.390;2023-03-31T12:31:42;97001.94;;;12.86;74.02
53719;BME280;39616;48.872;9.390;2023-03-31T12:34:15;96989.25;;;12.78;70.76
53719;BME280;39616;48.872;9.390;2023-03-31T12:36:57;96997.75;;;12.89;71.19
53719;BME280;39616;48.872;9.390;2023-03-31T12:39:49;96983.94;;;13.22;71.45
53719;BME280;39616;48.872;9.390;2023-03-31T12:42:54;96963.78;;;12.70;68.29
53719;BME280;39616;48.872;9.390;2023-03-31T12:45:30;96965.84;;;13.01;69.89
53719;BME280;39616;48.872;9.390;2023-03-31T12:56:06;96943.19;;;13.69;64.91
53719;BME280;39616;48.872;9.390;2023-03-31T12:58:39;96928.31;;;13.51;65.37
53719;BME280;39616;48.872;9.390;2023-03-31T13:04:16;96906.84;;;13.77;63.81
53719;BME280;39616;48.872;9.390;2023-03-31T13:06:52;96922.75;;;14.07;63.88
53719;BME280;39616;48.872;9.390;2023-03-31T13:12:18;96916.59;;;14.45;61.80
53719;BME280;39616;48.872;9.390;2023-03-31T13:14:52;96906.28;;;14.19;61.37
53719;BME280;39616;48.872;9.390;2023-03-31T13:17:32;96902.31;;;14.17;61.64
53719;BME280;39616;48.872;9.390;2023-03-31T13:20:28;96893.13;;;13.90;62.26
53719;BME280;39616;48.872;9.390;2023-03-31T13:25:46;96911.72;;;13.12;63.20
53719;BME280;39616;48.872;9.390;2023-03-31T13:30:52;96911.31;;;12.98;64.52
53719;BME280;39616;48.872;9.390;2023-03-31T13:33:29;96906.50;;;12.79;65.13
53719;BME280;39616;48.872;9.390;2023-03-31T13:42:10;96928.13;;;12.35;68.90
53719;BME280;39616;48.872;9.390;2023-03-31T13:47:55;96947.50;;;12.09;66.30
53719;BME280;39616;48.872;9.390;2023-03-31T13:54:06;96940.81;;;12.06;66.83
53719;BME280;39616;48.872;9.390;2023-03-31T13:56:48;96938.66;;;12.00;68.21
53719;BME280;39616;48.872;9.390;2023-03-31T14:05:22;96917.25;;;11.41;68.53
53719;BME280;39616;48.872;9.390;2023-03-31T14:07:58;96924.78;;;11.23;68.03
53719;BME280;39616;48.872;9.390;2023-03-31T14:10:32;96916.50;;;11.07;68.82
53719;BME280;39616;48.872;9.390;2023-03-31T14:13:11;96908.63;;;10.93;70.87
53719;BME280;39616;48.872;9.390;2023-03-31T14:15:56;96889.88;;;10.67;72.57
53719;BME280;39616;48.872;9.390;2023-03-31T14:18:30;96878.75;;;10.60;77.40
53719;BME280;39616;48.872;9.390;2023-03-31T14:21:10;96894.09;;;10.56;75.33
53719;BME280;39616;48.872;9.390;2023-03-31T14:32:03;96894.84;;;11.89;70.50
53719;BME280;39616;48.872;9.390;2023-03-31T14:34:48;96878.88;;;12.24;67.53
53719;BME280;39616;48.872;9.390;2023-03-31T14:37:23;96894.03;;;12.25;67.86
53719;BME280;39616;48.872;9.390;2023-03-31T14:39:56;96889.38;;;12.38;66.13
53719;BME280;39616;48.872;9.390;2023-03-31T14:42:39;96896.19;;;12.32;65.92
53719;BME280;39616;48.872;9.390;2023-03-31T14:45:22;96902.53;;;12.24;65.69
53719;BME280;39616;48.872;9.390;2023-03-31T14:48:10;96887.28;;;12.19;65.62
53719;BME280;39616;48.872;9.390;2023-03-31T14:50:45;96890.31;;;12.30;66.02
53719;BME280;39616;48.872;9.390;2023-03-31T14:53:21;96883.75;;;12.19;64.46
53719;BME280;39616;48.872;9.390;2023-03-31T14:55:53;96896.75;;;12.25;65.92
53719;BME280;39616;48.872;9.390;2023-03-31T14:58:30;96876.59;;;12.39;65.44
53719;BME280;39616;48.872;9.390;2023-03-31T15:01:05;96878.53;;;12.38;65.29
53719;BME280;39616;48.872;9.390;2023-03-31T15:03:38;96868.59;;;12.70;64.55
53719;BME280;39616;48.872;9.390;2023-03-31T15:06:10;96866.94;;;12.53;63.96
53719;BME280;39616;48.872;9.390;2023-03-31T15:08:41;96878.22;;;12.68;65.27
53719;BME280;39616;48.872;9.390;2023-03-31T15:11:15;96874.06;;;12.86;65.18
53719;BME280;39616;48.872;9.390;2023-03-31T15:13:51;96857.97;;;12.81;64.80
53719;BME280;39616;48.872;9.390;2023-03-31T15:19:12;96858.25;;;12.36;65.39
53719;BME280;39616;48.872;9.390;2023-03-31T15:21:43;96856.88;;;12.42;65.33
53719;BME280;39616;48.872;9.390;2023-03-31T15:24:14;96856.22;;;12.20;66.90
53719;BME280;39616;48.872;9.390;2023-03-31T15:26:52;96844.13;;;12.30;66.31
53719;BME280;39616;48.872;9.390;2023-03-31T15:29:37;96847.50;;;12.15;66.56
53719;BME280;39616;48.872;9.390;2023-03-31T15:32:17;96837.25;;;12.08;66.75
53719;BME280;39616;48.872;9.390;2023-03-31T15:34:53;96846.63;;;12.11;67.73
53719;BME280;39616;48.872;9.390;2023-03-31T15:37:30;96848.97;;;12.24;67.08